createdAt,value
2023-10-11T00:00:53.122Z,89.31
2023-10-11T00:05:57.372Z,89.17
2023-10-11T00:11:02.166Z,86.82
2023-10-11T00:16:09.461Z,88.36
2023-10-11T00:21:16.647Z,88.98
2023-10-11T00:26:21.324Z,87.43
2023-10-11T00:31:26.011Z,88.16
2023-10-11T00:36:31.443Z,87.05
2023-10-11T00:41:40.828Z,88.65
2023-10-11T00:46:57.981Z,89.45
2023-10-11T00:52:05.354Z,88.36
2023-10-11T00:57:08.945Z,87.44
2023-10-11T01:02:15.745Z,86.97
2023-10-11T01:07:19.170Z,86.31
2023-10-11T01:12:23.408Z,88.15
2023-10-11T01:17:31.454Z,88.74
2023-10-11T01:22:36.214Z,87.81
2023-10-11T01:27:39.414Z,91.00
2023-10-11T01:32:43.650Z,89.68
2023-10-11T01:37:49.601Z,90.08
2023-10-11T01:42:53.108Z,88.55
2023-10-11T01:47:58.408Z,88.37
2023-10-11T01:53:04.909Z,86.79
2023-10-11T01:58:13.910Z,86.72
2023-10-11T02:03:17.273Z,87.91
2023-10-11T02:08:22.090Z,88.60
2023-10-11T02:13:25.362Z,87.94
2023-10-11T02:18:29.684Z,88.86
2023-10-11T02:23:38.813Z,89.17
2023-10-11T02:28:42.130Z,87.03
2023-10-11T02:33:45.453Z,89.54
2023-10-11T02:38:52.377Z,87.59
2023-10-11T02:43:58.912Z,88.34
2023-10-11T02:49:07.380Z,90.00
2023-10-11T02:54:15.781Z,90.62
2023-10-11T02:59:20.814Z,91.31
2023-10-11T03:04:26.706Z,91.82
2023-10-11T03:09:34.422Z,90.60
2023-10-11T03:14:42.971Z,91.64
2023-10-11T03:19:46.511Z,88.34
2023-10-11T03:25:01.072Z,89.63
2023-10-11T03:30:05.043Z,90.37
2023-10-11T03:35:09.765Z,88.79
2023-10-11T03:40:28.480Z,89.76
2023-10-11T03:45:36.085Z,89.42
2023-10-11T03:50:48.933Z,87.26
2023-10-11T03:55:54.641Z,86.49
2023-10-11T04:01:08.040Z,87.58
2023-10-11T04:06:20.627Z,86.92
2023-10-11T04:11:39.156Z,85.31
2023-10-11T04:16:46.038Z,86.29
2023-10-11T04:21:56.801Z,85.48
2023-10-11T04:27:21.871Z,85.46
2023-10-11T04:32:42.337Z,82.67
2023-10-11T04:37:51.458Z,85.32
2023-10-11T04:43:06.714Z,84.60
2023-10-11T04:48:10.268Z,87.94
2023-10-11T04:53:18.865Z,89.19
2023-10-11T05:04:00.796Z,85.14
2023-10-11T05:09:14.959Z,85.02
2023-10-11T05:14:31.513Z,85.01
2023-10-11T05:19:37.327Z,85.49
2023-10-11T05:25:06.258Z,86.40
2023-10-11T05:30:17.745Z,87.15
2023-10-11T05:35:47.356Z,86.30
2023-10-11T05:41:08.554Z,86.40
2023-10-11T05:46:29.309Z,85.76
2023-10-11T05:51:34.072Z,84.84
2023-10-11T05:56:40.107Z,83.51
2023-10-11T06:01:45.515Z,86.22
2023-10-11T06:06:53.705Z,83.41
2023-10-11T06:12:01.576Z,84.83
2023-10-11T06:17:06.939Z,83.35
2023-10-11T06:22:12.124Z,87.06
2023-10-11T06:27:42.914Z,82.70
2023-10-11T06:32:46.303Z,83.95
2023-10-11T06:37:53.865Z,84.92
2023-10-11T06:42:58.584Z,85.35
2023-10-11T06:48:08.229Z,84.25
2023-10-11T06:53:14.938Z,82.90
2023-10-11T06:58:20.548Z,80.99
2023-10-11T07:03:28.573Z,81.67
2023-10-11T07:08:37.207Z,79.89
2023-10-11T07:13:56.400Z,81.13
2023-10-11T07:19:00.122Z,81.72
2023-10-11T07:24:20.795Z,80.01
2023-10-11T07:29:25.186Z,78.58
2023-10-11T07:34:28.686Z,77.17
2023-10-11T07:39:35.528Z,76.03
2023-10-11T07:44:40.552Z,76.32
2023-10-11T07:49:43.952Z,74.97
2023-10-11T07:54:48.769Z,74.59
2023-10-11T07:59:53.706Z,74.05
2023-10-11T08:04:58.434Z,75.31
2023-10-11T08:10:23.229Z,75.06
2023-10-11T08:15:26.701Z,75.23
2023-10-11T08:20:32.068Z,75.55
2023-10-11T08:25:40.914Z,74.75
2023-10-11T08:30:47.170Z,74.13
2023-10-11T08:35:54.504Z,73.10
2023-10-11T08:41:00.423Z,72.71
2023-10-11T08:46:10.182Z,70.51
2023-10-11T08:51:14.607Z,70.19
2023-10-11T08:56:19.334Z,68.18
2023-10-11T09:01:26.071Z,68.21
2023-10-11T09:06:32.169Z,66.61
2023-10-11T09:11:36.944Z,65.00
2023-10-11T09:16:40.329Z,63.88
2023-10-11T09:21:43.988Z,63.58
2023-10-11T09:27:10.312Z,62.96
2023-10-11T09:32:14.947Z,63.75
2023-10-11T09:37:21.982Z,64.17
2023-10-11T09:42:31.212Z,61.81
2023-10-11T09:47:35.807Z,61.62
2023-10-11T09:52:39.158Z,57.84
2023-10-11T09:57:57.856Z,57.04
2023-10-11T10:03:01.358Z,55.91
2023-10-11T10:08:16.148Z,52.76
2023-10-11T10:13:26.006Z,52.13
2023-10-11T10:18:29.695Z,51.54
2023-10-11T10:23:39.629Z,49.94
2023-10-11T10:28:58.904Z,49.34
2023-10-11T10:34:31.260Z,49.60
2023-10-11T10:39:50.360Z,48.30
2023-10-11T10:44:57.077Z,49.44
2023-10-11T10:50:07.430Z,49.16
2023-10-11T10:55:11.822Z,48.62
2023-10-11T11:00:26.178Z,48.21
2023-10-11T11:05:32.748Z,47.13
2023-10-11T11:10:36.472Z,47.59
2023-10-11T11:15:45.602Z,46.86
2023-10-11T11:20:52.657Z,46.18
2023-10-11T11:25:58.026Z,46.30
2023-10-11T11:31:15.936Z,46.90
2023-10-11T11:36:34.276Z,46.56
2023-10-11T11:41:37.828Z,44.24
2023-10-11T11:46:42.452Z,43.30
2023-10-11T11:51:46.021Z,42.91
2023-10-11T11:56:49.864Z,43.31
2023-10-11T12:01:57.642Z,43.42
2023-10-11T12:07:01.257Z,42.98
2023-10-11T12:12:06.446Z,43.21
2023-10-11T12:17:11.483Z,43.36
2023-10-11T12:22:15.955Z,43.68
2023-10-11T12:27:19.325Z,43.34
2023-10-11T12:32:23.983Z,43.38
2023-10-11T12:37:28.453Z,43.08
2023-10-11T12:42:35.203Z,43.15
2023-10-11T12:47:40.000Z,43.75
2023-10-11T12:52:45.623Z,43.20
2023-10-11T12:57:49.700Z,42.95
2023-10-11T13:03:00.098Z,42.70
2023-10-11T13:08:04.214Z,42.96
2023-10-11T13:13:10.442Z,42.82
2023-10-11T13:18:21.149Z,42.23
2023-10-11T13:23:30.646Z,42.20
2023-10-11T13:28:34.722Z,42.03
2023-10-11T13:33:39.739Z,41.85
2023-10-11T13:38:46.789Z,42.07
2023-10-11T13:43:50.347Z,41.49
2023-10-11T13:49:06.691Z,41.05
2023-10-11T13:54:30.217Z,40.90
2023-10-11T13:59:38.450Z,41.06
2023-10-11T14:04:57.573Z,40.79
2023-10-11T14:10:01.325Z,40.89
2023-10-11T14:15:08.296Z,40.30
2023-10-11T14:20:21.132Z,40.11
2023-10-11T14:25:25.787Z,40.81
2023-10-11T14:30:29.476Z,40.67
2023-10-11T14:35:38.967Z,40.82
2023-10-11T14:40:44.340Z,40.66
2023-10-11T14:45:49.590Z,39.43
2023-10-11T14:50:55.697Z,40.05
2023-10-11T14:55:58.962Z,41.19
2023-10-11T15:01:08.503Z,40.87
2023-10-11T15:06:14.057Z,40.98
2023-10-11T15:11:22.112Z,41.56
2023-10-11T15:16:28.033Z,41.67
2023-10-11T15:21:32.816Z,42.02
2023-10-11T15:26:36.211Z,42.84
2023-10-11T15:31:39.652Z,43.30
2023-10-11T15:36:44.426Z,43.99
2023-10-11T15:41:48.127Z,44.68
2023-10-11T15:46:51.833Z,45.00
2023-10-11T15:51:56.622Z,45.15
2023-10-11T15:57:01.704Z,45.58
2023-10-11T16:02:07.886Z,45.72
2023-10-11T16:07:12.756Z,46.38
2023-10-11T16:12:15.984Z,46.81
2023-10-11T16:17:19.368Z,48.09
2023-10-11T16:22:24.025Z,47.86
2023-10-11T16:27:27.363Z,48.57
2023-10-11T16:32:32.086Z,49.82
2023-10-11T16:37:37.802Z,50.62
2023-10-11T16:42:41.411Z,51.61
2023-10-11T16:47:45.825Z,52.56
2023-10-11T16:52:51.975Z,54.34
2023-10-11T16:57:56.631Z,54.40
2023-10-11T17:03:00.590Z,55.79
2023-10-11T17:08:09.254Z,58.06
2023-10-11T17:13:15.312Z,58.80
2023-10-11T17:18:18.706Z,59.97
2023-10-11T17:23:25.053Z,60.83
2023-10-11T17:28:28.414Z,62.42
2023-10-11T17:33:32.468Z,65.25
2023-10-11T17:38:37.761Z,63.80
2023-10-11T17:43:43.154Z,65.38
2023-10-11T17:48:46.807Z,68.26
2023-10-11T17:53:52.691Z,71.08
2023-10-11T17:59:02.653Z,72.16
2023-10-11T18:04:06.899Z,73.16
2023-10-11T18:09:13.578Z,74.41
2023-10-11T18:14:17.203Z,72.84
2023-10-11T18:19:21.559Z,73.02
2023-10-11T18:24:26.524Z,74.39
2023-10-11T18:29:29.716Z,75.02
2023-10-11T18:34:33.182Z,77.21
2023-10-11T18:39:38.022Z,77.27
2023-10-11T18:44:41.337Z,77.36
2023-10-11T18:49:44.789Z,75.74
2023-10-11T18:54:49.582Z,75.67
2023-10-11T18:59:53.614Z,76.34
2023-10-11T19:04:57.416Z,78.92
2023-10-11T19:10:05.943Z,79.72
2023-10-11T19:15:10.486Z,79.05
2023-10-11T19:20:15.271Z,78.50
2023-10-11T19:25:21.958Z,79.41
2023-10-11T19:30:25.551Z,79.12
2023-10-11T19:35:29.516Z,80.58
2023-10-11T19:40:34.257Z,81.79
2023-10-11T19:45:40.448Z,81.57
2023-10-11T19:50:43.789Z,80.39
2023-10-11T19:55:49.130Z,78.22
2023-10-11T20:00:52.545Z,81.98
2023-10-11T20:05:56.066Z,81.21
2023-10-11T20:11:05.073Z,81.58
2023-10-11T20:16:13.602Z,83.59
2023-10-11T20:21:20.082Z,81.76
2023-10-11T20:26:25.900Z,80.23
2023-10-11T20:31:30.089Z,79.60
2023-10-11T20:36:34.140Z,77.79
2023-10-11T20:41:38.934Z,78.15
2023-10-11T20:46:42.359Z,78.75
2023-10-11T20:51:45.794Z,79.59
2023-10-11T20:56:50.953Z,80.10
2023-10-11T21:01:56.106Z,79.95
2023-10-11T21:06:59.423Z,79.32
2023-10-11T21:12:04.391Z,78.45
2023-10-11T21:17:10.073Z,78.87
2023-10-11T21:22:13.497Z,78.89
2023-10-11T21:27:19.018Z,80.19
2023-10-11T21:32:22.353Z,78.83
2023-10-11T21:37:25.710Z,79.48
2023-10-11T21:42:32.217Z,78.74
2023-10-11T21:47:35.700Z,78.68
2023-10-11T21:52:39.100Z,79.70
2023-10-11T21:57:44.718Z,81.48
2023-10-11T22:02:48.653Z,80.99
2023-10-11T22:07:52.016Z,84.03
2023-10-11T22:12:57.222Z,82.59
2023-10-11T22:18:02.393Z,84.57
2023-10-11T22:23:06.788Z,81.04
2023-10-11T22:28:11.776Z,82.66
2023-10-11T22:33:15.162Z,84.30
2023-10-11T22:38:20.798Z,83.69
2023-10-11T22:43:29.728Z,83.67
2023-10-11T22:48:35.410Z,83.70
2023-10-11T22:53:49.933Z,84.77
2023-10-11T22:59:05.794Z,83.82
2023-10-11T23:04:10.176Z,83.10
2023-10-11T23:09:20.154Z,80.95
2023-10-11T23:14:25.452Z,81.42
2023-10-11T23:19:31.895Z,82.51
2023-10-11T23:24:42.016Z,82.74
2023-10-11T23:29:47.124Z,82.83
2023-10-11T23:34:52.220Z,82.19
2023-10-11T23:40:09.568Z,83.80
2023-10-11T23:45:17.850Z,82.34
2023-10-11T23:50:22.644Z,82.20
2023-10-11T23:55:27.936Z,83.49
